Time;durP1;ratioP1;P1;durP2;ratioP2;P2;SDS_P1;SDS_P2;PMS_P1;PMS_P2;Temp;Humidity;BMP_temperature;BMP_pressure;BME280_temperature;BME280_humidity;BME280_pressure;Samples;Min_cycle;Max_cycle;Signal;HPM_P1;HPM_P2
2022/07/09 00:01:44;;;;;;;4.38;1.55;;;18.90;74.00;;;;;;4935373;28;20111;-79
2022/07/09 00:04:11;;;;;;;4.80;1.40;;;18.90;74.10;;;;;;4935589;29;20420;-79
2022/07/09 00:06:38;;;;;;;4.70;1.83;;;18.80;74.10;;;;;;4919486;29;20127;-79
2022/07/09 00:09:05;;;;;;;4.03;1.90;;;18.80;74.40;;;;;;4936977;28;20098;-78
2022/07/09 00:11:33;;;;;;;3.20;1.67;;;18.70;74.50;;;;;;4921513;28;20044;-79
2022/07/09 00:13:59;;;;;;;3.92;1.70;;;18.70;74.60;;;;;;4951128;28;20082;-79
2022/07/09 00:16:26;;;;;;;3.50;1.52;;;18.70;74.70;;;;;;4935134;29;20571;-79
2022/07/09 00:18:54;;;;;;;3.60;1.75;;;18.70;74.90;;;;;;4919291;29;20059;-79
2022/07/09 00:21:21;;;;;;;3.28;1.50;;;18.60;74.90;;;;;;4951033;28;20043;-78
2022/07/09 00:23:48;;;;;;;3.38;1.67;;;18.60;75.00;;;;;;4936669;28;20056;-79
2022/07/09 00:26:15;;;;;;;2.80;1.48;;;18.60;75.10;;;;;;4936951;29;20082;-79
2022/07/09 00:28:42;;;;;;;6.65;1.95;;;18.60;75.20;;;;;;4950855;29;20559;-78
2022/07/09 00:31:10;;;;;;;4.07;1.73;;;18.50;75.40;;;;;;4921592;28;20098;-79
2022/07/09 00:33:36;;;;;;;3.75;1.52;;;18.50;75.40;;;;;;4950823;29;20410;-79
2022/07/09 00:36:04;;;;;;;4.28;1.75;;;18.50;75.50;;;;;;4921456;29;20142;-79
2022/07/09 00:38:31;;;;;;;4.43;1.58;;;18.50;75.60;;;;;;4936104;28;20077;-79
2022/07/09 00:40:58;;;;;;;4.60;1.77;;;18.40;75.80;;;;;;4953837;28;20055;-79
2022/07/09 00:43:25;;;;;;;4.38;1.90;;;18.40;76.20;;;;;;4935403;29;20416;-79
2022/07/09 00:45:52;;;;;;;3.95;2.40;;;18.30;77.00;;;;;;4939730;28;20643;-85
2022/07/09 00:48:19;;;;;;;3.40;1.80;;;18.30;76.60;;;;;;4948256;28;20217;-85
2022/07/09 00:50:47;;;;;;;3.70;1.88;;;18.20;76.60;;;;;;4940480;28;20070;-85
2022/07/09 00:53:17;;;;;;;2.30;1.50;;;18.20;76.60;;;;;;4934818;29;20084;-85
2022/07/09 00:55:46;;;;;;;3.85;1.63;;;18.20;76.60;;;;;;4946275;28;20055;-85
2022/07/09 00:58:16;;;;;;;2.75;1.52;;;18.20;76.60;;;;;;4969662;28;20039;-84
2022/07/09 01:00:44;;;;;;;3.63;1.55;;;18.20;76.70;;;;;;4963343;28;20052;-84
2022/07/09 01:03:11;;;;;;;2.60;1.17;;;18.10;76.70;;;;;;4934437;28;20194;-84
2022/07/09 01:05:38;;;;;;;3.85;1.80;;;18.10;77.40;;;;;;4950139;28;20102;-79
2022/07/09 01:08:07;;;;;;;3.63;1.40;;;18.10;76.80;;;;;;4950148;28;20079;-78
2022/07/09 01:10:35;;;;;;;2.40;1.30;;;18.10;76.90;;;;;;4936668;28;20555;-79
2022/07/09 01:13:04;;;;;;;2.47;1.17;;;18.10;77.00;;;;;;4918365;29;20056;-78
2022/07/09 01:15:31;;;;;;;3.63;1.40;;;18.10;77.10;;;;;;4930668;29;20107;-79
2022/07/09 01:17:59;;;;;;;4.53;1.50;;;18.00;77.70;;;;;;4952690;28;20055;-78
2022/07/09 01:20:30;;;;;;;2.90;1.48;;;18.00;77.20;;;;;;4956086;28;20098;-79
2022/07/09 01:22:58;;;;;;;3.17;1.48;;;18.00;78.00;;;;;;4961077;28;20062;-79
2022/07/09 01:25:39;;;;;;;2.75;1.30;;;17.90;77.40;;;;;;4954676;28;20050;-78
2022/07/09 01:28:09;;;;;;;3.17;1.00;;;17.90;77.50;;;;;;4949698;28;20511;-79
2022/07/09 01:30:38;;;;;;;3.42;1.60;;;17.90;77.60;;;;;;4949943;28;20059;-78
2022/07/09 01:33:05;;;;;;;3.05;1.40;;;17.80;77.70;;;;;;4934960;29;20134;-78
2022/07/09 01:35:32;;;;;;;4.47;1.77;;;17.80;77.80;;;;;;4940954;28;20048;-78
2022/07/09 01:37:59;;;;;;;2.88;1.48;;;17.80;77.90;;;;;;4958545;28;20046;-78
2022/07/09 01:40:26;;;;;;;2.95;1.38;;;17.80;78.00;;;;;;4942758;29;20090;-78
2022/07/09 01:42:53;;;;;;;1.90;1.10;;;17.70;78.00;;;;;;4933933;29;20474;-78
2022/07/09 01:45:20;;;;;;;2.70;1.40;;;17.70;78.10;;;;;;4959922;28;20079;-78
2022/07/09 01:47:47;;;;;;;2.88;1.67;;;17.60;78.20;;;;;;4937043;28;20372;-78
2022/07/09 01:50:14;;;;;;;4.05;1.83;;;17.60;78.30;;;;;;4914843;29;20135;-78
2022/07/09 01:52:41;;;;;;;3.10;1.80;;;17.60;78.40;;;;;;4940591;29;20083;-78
2022/07/09 01:55:08;;;;;;;3.17;1.63;;;17.60;78.50;;;;;;4920896;28;20092;-78
2022/07/09 01:57:35;;;;;;;3.05;1.60;;;17.60;78.60;;;;;;4917915;29;20052;-78
2022/07/09 02:00:05;;;;;;;5.20;1.85;;;17.50;78.60;;;;;;4938133;28;20500;-78
2022/07/09 02:02:38;;;;;;;3.40;1.65;;;17.50;78.70;;;;;;4944183;28;20129;-78
2022/07/09 02:05:06;;;;;;;4.82;1.85;;;17.50;78.90;;;;;;4954872;28;20052;-77
2022/07/09 02:07:33;;;;;;;3.10;1.50;;;17.50;78.90;;;;;;4918239;29;20138;-78
2022/07/09 02:10:00;;;;;;;2.83;1.20;;;17.50;78.90;;;;;;4917932;29;20048;-78
2022/07/09 02:12:27;;;;;;;2.95;1.80;;;17.50;79.00;;;;;;4933589;29;20039;-78
2022/07/09 02:14:54;;;;;;;5.40;1.95;;;17.40;79.00;;;;;;4933568;29;20496;-78
2022/07/09 02:17:24;;;;;;;3.22;1.60;;;17.40;79.10;;;;;;4933645;29;20039;-78
2022/07/09 02:19:52;;;;;;;3.75;1.75;;;17.40;79.20;;;;;;4949248;29;20091;-78
2022/07/09 02:22:19;;;;;;;3.88;1.70;;;17.40;79.30;;;;;;4918279;29;20055;-78
2022/07/09 02:24:46;;;;;;;3.75;1.80;;;17.30;79.40;;;;;;4922723;29;20048;-78
2022/07/09 02:27:13;;;;;;;4.38;1.88;;;17.30;79.40;;;;;;4925999;29;20066;-78
2022/07/09 02:29:40;;;;;;;3.33;1.63;;;17.30;79.50;;;;;;4934110;29;20055;-78
2022/07/09 02:32:10;;;;;;;3.92;1.52;;;17.30;79.60;;;;;;4927775;28;20048;-78
2022/07/09 02:34:38;;;;;;;4.55;2.05;;;17.30;79.60;;;;;;4940999;28;20070;-78
2022/07/09 02:37:06;;;;;;;4.20;1.83;;;17.20;79.70;;;;;;4928303;29;20083;-78
2022/07/09 02:39:33;;;;;;;4.43;1.70;;;17.20;79.80;;;;;;4936817;29;20134;-78
2022/07/09 02:42:00;;;;;;;4.20;2.55;;;17.20;79.90;;;;;;4952899;28;20040;-78
2022/07/09 02:44:27;;;;;;;3.78;1.98;;;17.20;80.00;;;;;;4952964;28;20523;-78
2022/07/09 02:46:54;;;;;;;3.00;1.77;;;17.20;80.10;;;;;;4936626;29;20262;-78
2022/07/09 02:49:23;;;;;;;4.35;1.80;;;17.20;80.10;;;;;;4952522;29;20040;-78
2022/07/09 02:51:51;;;;;;;3.42;1.70;;;17.10;80.20;;;;;;4965651;28;20099;-78
2022/07/09 02:54:21;;;;;;;3.33;1.55;;;17.10;80.30;;;;;;4952735;28;20043;-78
2022/07/09 02:56:51;;;;;;;5.18;2.03;;;17.10;80.30;;;;;;4935751;29;20084;-84
2022/07/09 02:59:18;;;;;;;4.10;2.25;;;17.10;80.40;;;;;;4936592;28;20146;-84
2022/07/09 03:01:45;;;;;;;3.40;2.00;;;17.10;80.50;;;;;;4941137;29;20498;-84
2022/07/09 03:04:13;;;;;;;3.55;1.52;;;17.10;80.60;;;;;;4921054;29;20079;-84
2022/07/09 03:06:40;;;;;;;3.17;1.67;;;17.00;80.60;;;;;;4952485;29;20044;-84
2022/07/09 03:09:07;;;;;;;3.38;1.90;;;17.00;80.70;;;;;;4952173;28;20448;-84
2022/07/09 03:11:34;;;;;;;3.83;1.90;;;17.00;80.80;;;;;;4945104;28;20043;-84
2022/07/09 03:14:01;;;;;;;3.92;2.17;;;17.10;81.00;;;;;;4960040;28;20068;-78
2022/07/09 03:16:28;;;;;;;3.17;1.60;;;17.10;81.00;;;;;;4961295;28;20083;-78
2022/07/09 03:18:55;;;;;;;3.10;1.52;;;17.20;80.90;;;;;;4936059;28;20138;-78
2022/07/09 03:21:22;;;;;;;3.80;2.40;;;17.20;81.10;;;;;;4933724;29;20474;-79
2022/07/09 03:23:49;;;;;;;3.88;2.17;;;17.20;81.10;;;;;;4954130;28;20441;-78
2022/07/09 03:26:16;;;;;;;4.90;2.45;;;17.30;81.00;;;;;;4936497;29;20052;-78
2022/07/09 03:28:43;;;;;;;3.40;1.75;;;17.30;80.90;;;;;;4933040;29;20083;-79
2022/07/09 03:31:10;;;;;;;5.25;2.70;;;17.40;81.00;;;;;;4951261;28;20044;-78
2022/07/09 03:33:37;;;;;;;4.97;2.72;;;17.40;81.00;;;;;;4928191;29;20047;-79
2022/07/09 03:36:04;;;;;;;4.80;2.67;;;17.40;81.00;;;;;;4951363;28;20119;-78
2022/07/09 03:38:31;;;;;;;3.42;2.08;;;17.50;81.00;;;;;;4926247;29;20403;-78
2022/07/09 03:40:58;;;;;;;4.50;2.08;;;17.50;81.00;;;;;;4948041;29;20044;-78
2022/07/09 03:43:27;;;;;;;3.45;1.60;;;17.50;81.50;;;;;;4916947;29;20062;-77
2022/07/09 03:45:54;;;;;;;2.97;1.50;;;17.60;80.80;;;;;;4945359;28;20436;-79
2022/07/09 03:48:21;;;;;;;5.80;1.50;;;17.60;80.70;;;;;;4935593;29;20040;-78
2022/07/09 03:50:48;;;;;;;3.20;1.75;;;17.70;80.60;;;;;;4951590;28;20075;-79
2022/07/09 03:53:15;;;;;;;3.70;1.25;;;17.70;80.50;;;;;;4955311;28;20873;-85
2022/07/09 03:55:42;;;;;;;4.00;1.63;;;17.80;80.50;;;;;;4951540;28;20555;-85
2022/07/09 03:58:09;;;;;;;2.35;1.10;;;17.80;80.30;;;;;;4925781;28;20051;-84
2022/07/09 04:00:36;;;;;;;2.60;1.20;;;17.80;80.30;;;;;;4922472;29;20484;-85
2022/07/09 04:03:03;;;;;;;2.63;1.27;;;17.80;80.70;;;;;;4920032;29;20059;-84
2022/07/09 04:05:30;;;;;;;2.30;0.90;;;17.80;80.00;;;;;;4932790;29;20043;-85
2022/07/09 04:07:59;;;;;;;3.00;1.23;;;17.90;80.00;;;;;;4940568;29;20132;-85
2022/07/09 04:10:26;;;;;;;3.22;1.38;;;17.90;79.90;;;;;;4953443;28;20192;-85
2022/07/09 04:12:55;;;;;;;3.38;1.35;;;17.90;80.50;;;;;;4932185;29;20060;-86
2022/07/09 04:15:22;;;;;;;2.72;1.38;;;18.00;79.90;;;;;;4946654;28;20507;-84
2022/07/09 04:17:49;;;;;;;3.03;1.30;;;18.00;79.90;;;;;;4938581;29;20122;-85
2022/07/09 04:20:16;;;;;;;3.05;1.00;;;18.00;79.90;;;;;;4954530;28;20074;-86
2022/07/09 04:22:43;;;;;;;2.92;1.35;;;18.00;79.90;;;;;;4948871;29;20047;-86
2022/07/09 04:25:10;;;;;;;3.15;1.85;;;18.10;79.90;;;;;;4939114;29;20496;-86
2022/07/09 04:27:38;;;;;;;3.10;1.48;;;18.10;79.90;;;;;;4950839;28;20127;-85
2022/07/09 04:30:08;;;;;;;2.40;1.27;;;18.10;79.90;;;;;;4945693;28;20054;-85
2022/07/09 04:32:36;;;;;;;2.35;1.30;;;18.10;79.80;;;;;;4937027;28;20044;-85
2022/07/09 04:35:04;;;;;;;3.80;1.30;;;18.20;79.70;;;;;;4916602;29;20032;-85
2022/07/09 04:37:31;;;;;;;3.25;1.30;;;18.20;79.70;;;;;;4934784;28;20519;-85
2022/07/09 04:39:57;;;;;;;2.42;1.35;;;18.20;79.80;;;;;;4934862;29;20048;-85
2022/07/09 04:42:24;;;;;;;2.75;1.00;;;18.20;79.80;;;;;;4950634;28;20083;-85
2022/07/09 04:44:51;;;;;;;2.55;1.20;;;18.30;79.80;;;;;;4950581;29;20079;-85
2022/07/09 04:47:18;;;;;;;1.90;0.88;;;18.30;79.80;;;;;;4934307;29;20051;-85
2022/07/09 04:49:45;;;;;;;2.42;0.85;;;18.30;79.80;;;;;;4934629;29;20071;-85
2022/07/09 04:52:16;;;;;;;3.13;1.00;;;18.30;79.80;;;;;;4931230;29;20044;-79
2022/07/09 04:54:43;;;;;;;3.72;1.20;;;18.30;79.80;;;;;;4946291;28;20139;-79
2022/07/09 04:57:10;;;;;;;2.17;0.80;;;18.30;79.80;;;;;;4942699;28;20090;-79
2022/07/09 04:59:37;;;;;;;2.20;1.00;;;18.30;79.80;;;;;;4915390;29;20079;-79
2022/07/09 05:02:04;;;;;;;4.03;1.60;;;18.30;79.90;;;;;;4950387;28;20083;-86
2022/07/09 05:04:31;;;;;;;5.00;1.45;;;18.20;79.90;;;;;;4918819;29;20103;-86
2022/07/09 05:06:58;;;;;;;4.18;1.60;;;18.20;79.90;;;;;;4937810;28;20111;-85
2022/07/09 05:09:25;;;;;;;3.67;1.63;;;18.20;79.90;;;;;;4931510;29;20136;-85
2022/07/09 05:11:54;;;;;;;3.35;1.42;;;18.30;79.90;;;;;;4957264;28;20448;-86
2022/07/09 05:14:21;;;;;;;2.72;1.38;;;18.30;79.80;;;;;;4957295;28;20051;-85
2022/07/09 05:16:49;;;;;;;4.20;2.00;;;18.40;79.80;;;;;;4950281;28;20063;-86
2022/07/09 05:19:16;;;;;;;4.00;2.00;;;18.50;79.80;;;;;;4950049;28;20508;-86
2022/07/09 05:21:43;;;;;;;5.70;2.70;;;18.60;79.70;;;;;;4950391;28;20056;-86
2022/07/09 05:24:10;;;;;;;4.85;2.58;;;18.60;79.60;;;;;;4918799;29;20416;-86
2022/07/09 05:26:37;;;;;;;4.03;1.95;;;18.60;79.60;;;;;;4934091;29;20048;-86
2022/07/09 05:29:04;;;;;;;6.18;2.90;;;18.60;79.60;;;;;;4920755;28;20043;-85
2022/07/09 05:31:31;;;;;;;4.93;2.67;;;18.60;79.70;;;;;;4949993;28;20079;-86
2022/07/09 05:34:01;;;;;;;6.60;3.50;;;18.60;79.70;;;;;;4928970;28;20105;-86
2022/07/09 05:36:30;;;;;;;6.93;3.17;;;18.60;80.00;;;;;;4934067;29;20079;-85
2022/07/09 05:38:59;;;;;;;5.35;2.85;;;18.60;80.00;;;;;;4934185;28;20051;-85
2022/07/09 05:41:26;;;;;;;5.00;2.72;;;18.60;80.00;;;;;;4933975;28;20443;-84
2022/07/09 05:43:53;;;;;;;5.70;2.83;;;18.70;80.00;;;;;;4950331;28;20074;-86
2022/07/09 05:46:20;;;;;;;3.85;2.03;;;18.70;79.90;;;;;;4936435;28;20071;-86
2022/07/09 05:48:48;;;;;;;4.18;1.90;;;18.80;79.80;;;;;;4949814;28;20048;-85
2022/07/09 05:51:15;;;;;;;4.57;1.88;;;18.90;79.60;;;;;;4934168;29;20479;-79
2022/07/09 05:53:42;;;;;;;6.07;2.58;;;19.00;79.40;;;;;;4941356;28;20047;-79
2022/07/09 05:56:09;;;;;;;3.85;2.13;;;19.20;79.30;;;;;;4949455;28;20044;-78
2022/07/09 05:58:37;;;;;;;4.35;2.50;;;19.30;79.00;;;;;;4908637;28;20052;-79
2022/07/09 06:01:05;;;;;;;4.65;2.05;;;19.50;78.90;;;;;;4922309;29;20448;-85
2022/07/09 06:03:33;;;;;;;4.28;1.73;;;19.60;78.60;;;;;;4941682;28;20052;-86
2022/07/09 06:06:00;;;;;;;3.67;1.83;;;19.70;78.40;;;;;;4953604;28;20051;-86
2022/07/09 06:08:27;;;;;;;6.38;1.88;;;19.80;78.30;;;;;;4954933;29;20040;-85
2022/07/09 06:10:54;;;;;;;3.70;1.83;;;19.80;78.30;;;;;;4934067;29;20041;-86
2022/07/09 06:13:21;;;;;;;2.70;1.40;;;19.80;78.40;;;;;;4960184;28;20047;-86
2022/07/09 06:15:48;;;;;;;3.55;1.20;;;19.90;78.30;;;;;;4936468;29;20100;-86
2022/07/09 06:18:16;;;;;;;3.30;1.45;;;20.00;78.20;;;;;;4955238;28;20055;-86
2022/07/09 06:20:44;;;;;;;3.10;1.52;;;20.00;78.10;;;;;;4937824;29;20074;-86
2022/07/09 06:23:11;;;;;;;5.20;1.33;;;19.90;78.10;;;;;;4958973;28;20047;-86
2022/07/09 06:25:39;;;;;;;3.00;1.40;;;19.90;78.10;;;;;;4957357;28;20069;-86
2022/07/09 06:28:07;;;;;;;3.83;1.85;;;19.90;78.00;;;;;;4959009;28;20086;-86
2022/07/09 06:30:34;;;;;;;3.20;1.88;;;20.10;77.80;;;;;;4958387;28;20052;-85
2022/07/09 06:33:01;;;;;;;3.35;1.73;;;20.10;77.70;;;;;;4953051;28;20405;-85
2022/07/09 06:35:28;;;;;;;3.83;1.98;;;20.10;77.60;;;;;;4953025;29;20559;-85
2022/07/09 06:37:54;;;;;;;2.97;1.45;;;20.20;77.50;;;;;;4937061;29;20059;-85
2022/07/09 06:40:21;;;;;;;5.13;2.03;;;20.30;77.30;;;;;;4965677;28;20496;-86
2022/07/09 06:42:49;;;;;;;3.50;1.52;;;20.40;77.20;;;;;;4939367;28;20468;-85
2022/07/09 06:45:23;;;;;;;2.55;1.20;;;20.40;77.20;;;;;;4961954;28;20110;-85
2022/07/09 06:47:50;;;;;;;2.80;1.40;;;20.30;77.10;;;;;;4937188;28;20102;-86
2022/07/09 06:50:17;;;;;;;3.10;1.25;;;20.30;77.30;;;;;;4952809;28;20081;-86
2022/07/09 06:52:45;;;;;;;2.70;1.40;;;20.40;77.20;;;;;;4954540;28;20472;-86
2022/07/09 06:55:11;;;;;;;2.35;1.33;;;20.50;77.10;;;;;;4952690;28;20051;-86
2022/07/09 06:57:38;;;;;;;3.13;1.30;;;20.60;76.90;;;;;;4936767;29;20048;-86
2022/07/09 07:00:07;;;;;;;4.40;1.25;;;20.60;76.80;;;;;;4936736;28;20047;-86
2022/07/09 07:02:34;;;;;;;2.70;1.25;;;20.60;76.80;;;;;;4946991;29;20134;-86
2022/07/09 07:05:01;;;;;;;2.03;0.93;;;20.60;76.70;;;;;;4936569;29;20146;-86
2022/07/09 07:07:28;;;;;;;1.65;0.85;;;20.70;77.20;;;;;;4942014;29;20071;-89
2022/07/09 07:09:55;;;;;;;2.20;1.00;;;20.70;76.40;;;;;;4920867;29;20043;-89
2022/07/09 07:12:22;;;;;;;2.67;0.85;;;20.80;76.30;;;;;;4959278;28;20511;-89
2022/07/09 07:14:50;;;;;;;1.25;0.60;;;20.80;76.10;;;;;;4947684;28;20066;-87
2022/07/09 07:17:17;;;;;;;1.15;0.60;;;21.00;75.90;;;;;;4939692;28;20078;-86
2022/07/09 07:19:44;;;;;;;3.92;0.60;;;21.10;75.60;;;;;;4936970;29;20172;-88
2022/07/09 07:22:11;;;;;;;1.42;0.52;;;21.20;75.20;;;;;;4954215;28;20051;-84
2022/07/09 07:24:38;;;;;;;2.05;1.40;;;21.30;75.00;;;;;;4936064;29;20352;-85
2022/07/09 07:27:06;;;;;;;2.70;0.82;;;21.30;74.70;;;;;;4925919;28;20043;-84
2022/07/09 07:29:33;;;;;;;1.60;0.65;;;21.40;74.50;;;;;;4936187;29;20110;-85
2022/07/09 07:32:00;;;;;;;1.48;0.70;;;21.50;74.40;;;;;;4927666;29;20095;-84
2022/07/09 07:34:27;;;;;;;2.22;1.10;;;21.60;74.20;;;;;;4939822;29;20044;-86
2022/07/09 07:36:54;;;;;;;2.80;0.90;;;21.70;73.80;;;;;;4962806;28;20047;-87
2022/07/09 07:39:24;;;;;;;2.72;1.20;;;21.70;73.80;;;;;;4969956;28;20042;-88
2022/07/09 07:41:52;;;;;;;2.65;1.20;;;21.70;73.80;;;;;;4952290;28;20089;-88
2022/07/09 07:44:19;;;;;;;3.22;1.77;;;21.70;73.90;;;;;;4952364;28;20055;-88
2022/07/09 07:46:46;;;;;;;3.30;1.70;;;21.70;73.90;;;;;;4952246;28;20060;-84
2022/07/09 07:49:13;;;;;;;3.08;1.23;;;21.80;73.80;;;;;;4936849;29;20044;-84
2022/07/09 07:51:41;;;;;;;5.05;1.75;;;21.80;73.70;;;;;;4940961;29;20079;-84
2022/07/09 07:54:08;;;;;;;3.47;1.48;;;21.80;73.70;;;;;;4951657;28;20571;-84
2022/07/09 07:56:36;;;;;;;3.35;1.20;;;21.80;73.80;;;;;;4924834;29;20054;-84
2022/07/09 07:59:03;;;;;;;1.52;0.90;;;21.90;73.70;;;;;;4942789;29;20051;-85
2022/07/09 08:01:30;;;;;;;2.97;1.40;;;22.20;73.40;;;;;;4956650;28;20059;-85
2022/07/09 08:03:57;;;;;;;3.55;1.73;;;22.30;73.00;;;;;;4922014;29;20048;-84
2022/07/09 08:06:25;;;;;;;4.78;1.63;;;22.40;72.80;;;;;;4927617;28;20055;-85
2022/07/09 08:08:52;;;;;;;4.28;2.05;;;22.50;72.70;;;;;;4935437;29;20095;-85
2022/07/09 08:11:19;;;;;;;2.28;0.90;;;22.50;72.50;;;;;;4941397;28;20043;-85
2022/07/09 08:13:45;;;;;;;3.22;2.00;;;22.70;72.50;;;;;;4958632;28;20067;-85
2022/07/09 08:16:12;;;;;;;2.78;0.93;;;22.80;72.10;;;;;;4951384;28;20102;-84
2022/07/09 08:18:39;;;;;;;2.65;0.90;;;22.90;71.60;;;;;;4951538;28;20059;-85
2022/07/09 08:21:08;;;;;;;1.73;0.80;;;22.90;71.30;;;;;;4934448;29;20065;-83
2022/07/09 08:23:51;;;;;;;3.08;1.00;;;23.00;71.20;;;;;;4951216;28;20056;-85
2022/07/09 08:26:27;;;;;;;1.85;1.10;;;23.10;71.00;;;;;;4935451;28;20408;-85
2022/07/09 08:28:54;;;;;;;2.35;1.00;;;23.20;70.40;;;;;;4950847;29;20484;-85
2022/07/09 08:31:21;;;;;;;1.77;0.93;;;23.30;70.50;;;;;;4935041;29;20099;-85
2022/07/09 08:33:50;;;;;;;3.17;0.88;;;23.30;70.20;;;;;;4950976;28;20051;-85
2022/07/09 08:36:17;;;;;;;1.92;0.73;;;23.30;70.00;;;;;;4935098;28;20048;-84
2022/07/09 08:38:44;;;;;;;1.85;0.85;;;23.30;70.10;;;;;;4934981;29;20063;-86
2022/07/09 08:41:12;;;;;;;1.20;0.63;;;23.40;69.80;;;;;;4951086;28;20147;-86
2022/07/09 08:43:39;;;;;;;1.70;0.65;;;23.50;69.80;;;;;;4919466;28;20052;-87
2022/07/09 08:46:07;;;;;;;2.50;0.95;;;23.50;69.50;;;;;;4922960;29;20063;-87
2022/07/09 08:48:36;;;;;;;4.15;1.30;;;23.60;69.00;;;;;;4940864;28;20070;-88
2022/07/09 08:51:04;;;;;;;2.13;1.17;;;23.70;68.40;;;;;;4947077;28;20427;-88
2022/07/09 08:53:31;;;;;;;2.40;1.23;;;23.80;68.30;;;;;;4944889;28;20075;-87
2022/07/09 08:55:58;;;;;;;2.42;1.00;;;23.80;67.90;;;;;;4954970;28;20044;-89
2022/07/09 08:58:25;;;;;;;1.92;1.20;;;23.70;68.10;;;;;;4951277;29;20075;-88
2022/07/09 09:00:53;;;;;;;3.30;1.10;;;23.60;68.10;;;;;;4961992;28;20048;-83
2022/07/09 09:03:20;;;;;;;2.67;1.13;;;23.50;68.40;;;;;;4939760;29;20035;-80
2022/07/09 09:06:08;;;;;;;1.75;0.85;;;23.30;68.60;;;;;;4950195;28;20174;-80
2022/07/09 09:08:40;;;;;;;2.83;1.13;;;23.30;68.80;;;;;;4951033;28;20114;-79
2022/07/09 09:11:14;;;;;;;;;;;23.10;69.00;;;;;;4960972;28;20044;-79
2022/07/09 09:13:43;;;;;;;2.72;1.60;;;23.00;69.20;;;;;;4950388;28;20350;-79
2022/07/09 09:16:11;;;;;;;2.80;2.00;;;22.90;69.20;;;;;;4952174;28;20399;-79
2022/07/09 09:18:47;;;;;;;3.47;2.35;;;22.80;69.40;;;;;;4937284;28;20051;-79
2022/07/09 09:21:16;;;;;;;2.85;1.60;;;22.90;69.20;;;;;;4956088;28;20144;-78
2022/07/09 09:23:47;;;;;;;2.65;1.55;;;23.00;69.10;;;;;;4937545;29;20138;-79
2022/07/09 09:26:21;;;;;;;3.43;1.73;;;23.20;68.80;;;;;;4937269;29;20388;-82
2022/07/09 09:28:55;;;;;;;3.70;2.30;;;23.50;68.40;;;;;;4968987;28;20307;-82
2022/07/09 09:31:35;;;;;;;4.40;3.33;;;23.60;68.10;;;;;;4948927;28;20168;-82
2022/07/09 09:34:08;;;;;;;4.63;3.42;;;23.70;67.70;;;;;;4949050;28;20048;-82
2022/07/09 09:36:41;;;;;;;5.93;3.90;;;23.60;67.80;;;;;;4950267;28;20583;-83
2022/07/09 09:39:16;;;;;;;4.30;2.55;;;23.40;67.90;;;;;;4964096;28;20051;-84
2022/07/09 09:41:56;;;;;;;3.58;2.95;;;23.40;68.40;;;;;;4953537;28;20411;-83
2022/07/09 09:44:37;;;;;;;5.03;4.22;;;23.30;68.50;;;;;;4950381;28;20381;-83
2022/07/09 09:47:05;;;;;;;4.97;3.78;;;23.20;68.50;;;;;;4939715;28;20043;-84
2022/07/09 09:49:36;;;;;;;5.40;3.35;;;23.00;68.70;;;;;;4952356;28;20069;-82
2022/07/09 09:52:09;;;;;;;3.67;2.80;;;23.00;68.90;;;;;;4962750;28;20047;-82
2022/07/09 09:54:38;;;;;;;3.58;2.63;;;23.00;68.90;;;;;;4956616;28;20052;-82
2022/07/09 09:57:10;;;;;;;4.78;3.33;;;23.10;68.80;;;;;;4918239;29;20441;-82
2022/07/09 09:59:38;;;;;;;;;;;23.20;68.50;;;;;;4940519;28;20384;-83
2022/07/09 10:02:06;;;;;;;5.70;4.05;;;23.20;68.50;;;;;;4951491;28;20367;-83
2022/07/09 10:04:41;;;;;;;4.70;4.07;;;23.10;69.10;;;;;;4943141;28;20048;-83
2022/07/09 10:07:11;;;;;;;3.90;3.35;;;23.00;68.50;;;;;;4945005;29;20126;-84
2022/07/09 10:09:58;;;;;;;4.13;2.72;;;23.00;68.80;;;;;;4958773;28;20044;-83
2022/07/09 10:12:27;;;;;;;4.85;3.17;;;23.20;68.40;;;;;;4949785;28;20050;-81
2022/07/09 10:14:55;;;;;;;3.15;2.58;;;23.30;68.20;;;;;;4955978;28;20039;-82
2022/07/09 10:17:25;;;;;;;3.33;2.30;;;23.30;68.00;;;;;;4933565;29;20044;-83
2022/07/09 10:19:56;;;;;;;3.63;2.60;;;23.40;68.10;;;;;;4955287;28;20079;-83
2022/07/09 10:22:38;;;;;;;2.75;1.60;;;23.50;67.70;;;;;;4956028;28;20102;-83
2022/07/09 10:25:06;;;;;;;3.78;1.50;;;23.50;67.60;;;;;;4949594;28;20408;-82
2022/07/09 10:27:48;;;;;;;2.50;0.90;;;23.40;68.00;;;;;;4934146;29;20067;-82
2022/07/09 10:30:32;;;;;;;1.70;0.60;;;23.40;67.90;;;;;;4946603;29;20150;-83
2022/07/09 10:33:02;;;;;;;1.45;0.70;;;23.40;67.70;;;;;;4936341;28;20451;-83
2022/07/09 10:35:31;;;;;;;1.60;0.68;;;23.50;67.60;;;;;;4935423;29;20497;-82
2022/07/09 10:37:58;;;;;;;2.80;0.70;;;23.60;67.00;;;;;;4951905;28;20056;-83
2022/07/09 10:40:27;;;;;;;1.15;0.63;;;23.60;66.90;;;;;;4957718;28;20068;-84
2022/07/09 10:42:59;;;;;;;1.17;0.63;;;23.70;66.60;;;;;;4933652;28;20047;-83
2022/07/09 10:45:40;;;;;;;3.38;0.80;;;23.90;65.90;;;;;;4936658;29;20412;-83
2022/07/09 10:48:09;;;;;;;1.25;0.63;;;24.00;65.20;;;;;;4965051;28;20408;-84
2022/07/09 10:50:39;;;;;;;2.28;0.70;;;24.10;64.80;;;;;;4940329;29;20040;-82
2022/07/09 10:53:06;;;;;;;0.80;0.50;;;24.30;64.10;;;;;;4952851;28;20638;-82
2022/07/09 10:55:33;;;;;;;2.45;0.95;;;24.40;64.20;;;;;;4925346;29;20444;-83
2022/07/09 10:58:07;;;;;;;0.50;0.40;;;24.60;63.20;;;;;;4952014;28;20060;-83
2022/07/09 11:00:35;;;;;;;0.90;0.50;;;24.50;63.60;;;;;;4964464;28;20444;-83
2022/07/09 11:03:06;;;;;;;1.25;0.50;;;24.50;62.60;;;;;;4962909;28;20047;-83
2022/07/09 11:05:42;;;;;;;0.80;0.50;;;24.40;62.50;;;;;;4966768;28;20564;-83
2022/07/09 11:08:10;;;;;;;0.80;0.40;;;24.50;62.50;;;;;;4948084;29;20126;-83
2022/07/09 11:10:39;;;;;;;0.52;0.30;;;24.70;61.80;;;;;;4960354;28;20048;-84
2022/07/09 11:13:08;;;;;;;0.90;0.50;;;24.90;61.50;;;;;;4957633;28;20054;-83
2022/07/09 11:15:37;;;;;;;0.80;0.50;;;25.10;60.90;;;;;;4943146;29;20403;-84
2022/07/09 11:18:15;;;;;;;0.80;0.50;;;25.20;60.20;;;;;;4966421;28;20047;-82
2022/07/09 11:20:46;;;;;;;0.75;0.40;;;25.20;59.90;;;;;;4959389;28;20052;-83
2022/07/09 11:23:17;;;;;;;0.50;0.35;;;25.30;59.80;;;;;;4942598;29;20051;-82
2022/07/09 11:25:46;;;;;;;0.65;0.40;;;25.40;59.70;;;;;;4933114;29;20052;-83
2022/07/09 11:28:24;;;;;;;2.50;0.40;;;25.40;59.00;;;;;;4958983;28;20055;-83
2022/07/09 11:31:02;;;;;;;1.55;0.30;;;25.40;58.40;;;;;;4967284;28;20043;-82
2022/07/09 11:36:18;;;;;;;0.50;0.20;;;25.60;58.40;;;;;;4965045;28;20044;-83
2022/07/09 11:38:51;;;;;;;0.55;0.25;;;25.60;58.00;;;;;;4935860;29;20062;-83
2022/07/09 11:41:21;;;;;;;0.60;0.20;;;25.70;57.70;;;;;;4939602;28;20048;-81
2022/07/09 11:43:52;;;;;;;1.55;0.30;;;25.60;57.60;;;;;;4928072;28;20420;-82
2022/07/09 11:46:22;;;;;;;1.27;0.25;;;25.60;56.80;;;;;;4951763;28;20491;-80
2022/07/09 11:48:53;;;;;;;0.85;0.30;;;25.60;56.50;;;;;;4966088;28;20356;-83
2022/07/09 11:51:46;;;;;;;1.10;0.50;;;25.70;55.90;;;;;;4953149;28;20054;-83
2022/07/09 11:54:27;;;;;;;0.90;0.20;;;25.90;56.60;;;;;;4940646;28;20047;-83
2022/07/09 11:56:54;;;;;;;0.50;0.30;;;26.10;55.90;;;;;;4952263;28;20047;-85
2022/07/09 11:59:34;;;;;;;2.47;0.30;;;26.30;55.30;;;;;;4925791;29;20055;-85
2022/07/09 12:02:02;;;;;;;0.68;0.30;;;26.40;54.00;;;;;;4944101;28;20086;-85
2022/07/09 12:04:30;;;;;;;0.57;0.30;;;26.40;54.50;;;;;;4932396;29;20144;-83
2022/07/09 12:06:58;;;;;;;0.43;0.20;;;26.60;53.60;;;;;;4947977;29;20385;-86
2022/07/09 12:09:34;;;;;;;1.00;0.50;;;26.80;53.20;;;;;;4925166;29;20047;-93
2022/07/09 12:12:01;;;;;;;0.52;0.20;;;27.20;52.60;;;;;;4948664;28;20059;-90
2022/07/09 12:14:36;;;;;;;1.58;0.40;;;27.00;52.60;;;;;;4952077;29;20146;-86
2022/07/09 12:17:06;;;;;;;0.60;0.15;;;26.50;52.90;;;;;;4952091;29;20120;-87
2022/07/09 12:19:33;;;;;;;1.17;0.20;;;26.30;53.50;;;;;;4936364;28;20146;-85
2022/07/09 12:22:01;;;;;;;0.55;0.20;;;27.00;53.30;;;;;;4957202;28;20052;-88
2022/07/09 12:24:31;;;;;;;1.80;0.25;;;27.60;52.20;;;;;;4921177;29;20044;-86
2022/07/09 12:26:59;;;;;;;1.17;0.30;;;27.80;50.70;;;;;;4941891;28;20106;-83
2022/07/09 12:29:46;;;;;;;0.70;0.30;;;27.80;49.70;;;;;;4943082;28;20062;-85
2022/07/09 12:32:15;;;;;;;1.30;0.30;;;27.90;48.70;;;;;;4970572;28;20413;-86
2022/07/09 12:34:43;;;;;;;0.65;0.20;;;28.00;48.90;;;;;;4935492;29;20138;-91
2022/07/09 12:37:10;;;;;;;0.75;0.25;;;28.30;48.60;;;;;;4962202;28;20133;-84
2022/07/09 12:39:37;;;;;;;1.05;0.20;;;28.30;47.20;;;;;;4951709;28;20043;-86
2022/07/09 12:42:04;;;;;;;0.82;0.30;;;28.20;47.80;;;;;;4940095;29;20062;-86
2022/07/09 12:44:31;;;;;;;0.85;0.35;;;28.60;47.90;;;;;;4959382;28;20217;-85
2022/07/09 12:46:58;;;;;;;0.63;0.20;;;28.70;47.00;;;;;;4970747;28;20440;-84
2022/07/09 12:49:25;;;;;;;0.75;0.20;;;29.00;47.10;;;;;;4960443;28;20110;-78
2022/07/09 12:51:52;;;;;;;1.52;0.30;;;29.40;46.70;;;;;;4956708;28;20446;-77
2022/07/09 12:54:19;;;;;;;1.23;0.22;;;29.70;46.00;;;;;;4961878;28;20436;-78
2022/07/09 12:56:49;;;;;;;0.98;0.30;;;29.60;45.70;;;;;;4939684;29;20047;-78
2022/07/09 12:59:34;;;;;;;0.32;0.20;;;29.50;45.80;;;;;;4951092;28;20055;-77